createdAt,value
2022-12-16T00:00:07.716Z,1004.75
2022-12-16T00:01:07.798Z,1004.78
2022-12-16T00:02:07.829Z,1004.79
2022-12-16T00:03:07.823Z,1004.81
2022-12-16T00:04:07.705Z,1004.83
2022-12-16T00:05:07.707Z,1004.75
2022-12-16T00:06:07.696Z,1004.79
2022-12-16T00:07:07.703Z,1004.76
2022-12-16T00:08:07.701Z,1004.75
2022-12-16T00:09:07.691Z,1004.74
2022-12-16T00:10:07.689Z,1004.76
2022-12-16T00:11:07.688Z,1004.80
2022-12-16T00:12:07.684Z,1004.80
2022-12-16T00:13:10.657Z,1004.82
2022-12-16T00:14:07.680Z,1004.79
2022-12-16T00:15:07.680Z,1004.77
2022-12-16T00:16:07.745Z,1004.82
2022-12-16T00:17:07.675Z,1004.77
2022-12-16T00:18:07.702Z,1004.80
2022-12-16T00:19:07.676Z,1004.82
2022-12-16T00:20:07.668Z,1004.80
2022-12-16T00:21:07.664Z,1004.83
2022-12-16T00:22:07.664Z,1004.82
2022-12-16T00:23:07.674Z,1004.84
2022-12-16T00:24:07.661Z,1004.85
2022-12-16T00:25:07.667Z,1004.87
2022-12-16T00:26:07.658Z,1004.89
2022-12-16T00:27:07.651Z,1004.93
2022-12-16T00:28:07.657Z,1004.93
2022-12-16T00:29:07.647Z,1004.92
2022-12-16T00:30:07.648Z,1004.96
2022-12-16T00:31:07.793Z,1004.90
2022-12-16T00:32:07.651Z,1004.96
2022-12-16T00:33:07.647Z,1004.97
2022-12-16T00:34:07.658Z,1005.00
2022-12-16T00:35:07.641Z,1005.09
2022-12-16T00:36:07.635Z,1005.07
2022-12-16T00:37:07.634Z,1005.06
2022-12-16T00:38:07.637Z,1005.07
2022-12-16T00:39:07.636Z,1005.08
2022-12-16T00:40:07.633Z,1005.09
2022-12-16T00:41:07.626Z,1005.03
2022-12-16T00:42:07.620Z,1005.05
2022-12-16T00:43:07.621Z,1005.04
2022-12-16T00:44:07.623Z,1005.06
2022-12-16T00:45:07.615Z,1005.05
2022-12-16T00:46:07.710Z,1005.08
2022-12-16T00:47:07.617Z,1005.08
2022-12-16T00:48:07.610Z,1005.09
2022-12-16T00:49:07.608Z,1005.13
2022-12-16T00:50:07.628Z,1005.12
2022-12-16T00:51:07.603Z,1005.12
2022-12-16T00:52:07.606Z,1005.11
2022-12-16T00:53:07.595Z,1005.10
2022-12-16T00:54:07.596Z,1005.09
2022-12-16T00:55:07.592Z,1005.13
2022-12-16T00:56:07.598Z,1005.09
2022-12-16T00:57:07.587Z,1005.12
2022-12-16T00:58:07.587Z,1005.10
2022-12-16T00:59:07.593Z,1005.11
2022-12-16T01:00:07.589Z,1005.04
2022-12-16T01:01:07.630Z,1005.04
2022-12-16T01:02:07.823Z,1004.99
2022-12-16T01:03:07.701Z,1004.99
2022-12-16T01:04:07.575Z,1005.02
2022-12-16T01:05:07.571Z,1005.07
2022-12-16T01:06:07.588Z,1005.00
2022-12-16T01:07:07.574Z,1005.08
2022-12-16T01:08:07.571Z,1005.07
2022-12-16T01:09:07.569Z,1005.09
2022-12-16T01:10:07.568Z,1005.08
2022-12-16T01:11:07.559Z,1005.02
2022-12-16T01:12:07.555Z,1005.06
2022-12-16T01:13:07.565Z,1005.08
2022-12-16T01:14:07.552Z,1005.09
2022-12-16T01:15:07.549Z,1005.09
2022-12-16T01:16:07.579Z,1005.10
2022-12-16T01:17:07.547Z,1005.14
2022-12-16T01:18:07.542Z,1005.10
2022-12-16T01:19:07.541Z,1005.07
2022-12-16T01:20:07.537Z,1005.08
2022-12-16T01:21:07.536Z,1005.11
2022-12-16T01:22:07.565Z,1005.11
2022-12-16T01:23:07.539Z,1005.11
2022-12-16T01:24:07.536Z,1005.16
2022-12-16T01:25:07.535Z,1005.10
2022-12-16T01:26:07.524Z,1005.10
2022-12-16T01:27:07.524Z,1005.11
2022-12-16T01:28:07.527Z,1005.10
2022-12-16T01:29:07.518Z,1005.13
2022-12-16T01:30:07.516Z,1005.13
2022-12-16T01:31:07.522Z,1005.18
2022-12-16T01:32:07.573Z,1005.16
2022-12-16T01:33:07.508Z,1005.13
2022-12-16T01:34:07.508Z,1005.17
2022-12-16T01:35:18.038Z,1005.24
2022-12-16T01:36:07.507Z,1005.17
2022-12-16T01:37:07.501Z,1005.23
2022-12-16T01:38:07.518Z,1005.24
2022-12-16T01:39:07.495Z,1005.23
2022-12-16T01:40:07.493Z,1005.19
2022-12-16T01:41:07.499Z,1005.24
2022-12-16T01:42:07.496Z,1005.22
2022-12-16T01:43:07.494Z,1005.25
2022-12-16T01:44:07.484Z,1005.19
2022-12-16T01:45:07.480Z,1005.20
2022-12-16T01:46:07.530Z,1005.19
2022-12-16T01:47:07.484Z,1005.19
2022-12-16T01:48:07.478Z,1005.17
2022-12-16T01:49:07.480Z,1005.17
2022-12-16T01:50:07.479Z,1005.11
2022-12-16T01:51:07.471Z,1005.11
2022-12-16T01:52:07.474Z,1005.13
2022-12-16T01:53:07.463Z,1005.12
2022-12-16T01:54:07.486Z,1005.10
2022-12-16T01:55:07.458Z,1005.13
2022-12-16T01:56:07.469Z,1005.14
2022-12-16T01:57:07.460Z,1005.12
2022-12-16T01:58:07.462Z,1005.12
2022-12-16T01:59:07.456Z,1005.15
2022-12-16T02:00:07.449Z,1005.12
2022-12-16T02:01:07.488Z,1005.12
2022-12-16T02:02:07.645Z,1005.14
2022-12-16T02:03:07.480Z,1005.10
2022-12-16T02:04:07.438Z,1005.12
2022-12-16T02:05:07.441Z,1005.12
2022-12-16T02:06:07.441Z,1005.08
2022-12-16T02:07:07.429Z,1005.06
2022-12-16T02:08:07.436Z,1005.06
2022-12-16T02:09:07.434Z,1005.05
2022-12-16T02:10:07.450Z,1005.05
2022-12-16T02:11:07.430Z,1005.02
2022-12-16T02:12:07.431Z,1005.04
2022-12-16T02:13:07.425Z,1005.01
2022-12-16T02:14:07.421Z,1005.02
2022-12-16T02:15:07.412Z,1005.01
2022-12-16T02:16:07.562Z,1005.00
2022-12-16T02:17:07.495Z,1005.01
2022-12-16T02:18:07.411Z,1005.00
2022-12-16T02:19:07.403Z,1005.01
2022-12-16T02:20:07.408Z,1004.98
2022-12-16T02:21:07.406Z,1005.02
2022-12-16T02:22:07.403Z,1005.00
2022-12-16T02:23:07.395Z,1004.99
2022-12-16T02:24:07.392Z,1005.01
2022-12-16T02:25:07.396Z,1005.00
2022-12-16T02:26:07.511Z,1005.00
2022-12-16T02:27:07.383Z,1004.97
2022-12-16T02:28:07.382Z,1004.98
2022-12-16T02:29:07.377Z,1004.99
2022-12-16T02:30:07.376Z,1004.97
2022-12-16T02:31:07.420Z,1004.99
2022-12-16T02:32:07.371Z,1004.96
2022-12-16T02:33:07.368Z,1004.96
2022-12-16T02:34:07.376Z,1004.96
2022-12-16T02:35:07.362Z,1004.97
2022-12-16T02:36:07.362Z,1004.98
2022-12-16T02:37:07.371Z,1005.00
2022-12-16T02:38:07.357Z,1004.98
2022-12-16T02:39:07.353Z,1004.99
2022-12-16T02:40:07.358Z,1005.00
2022-12-16T02:41:07.347Z,1004.96
2022-12-16T02:42:07.429Z,1004.97
2022-12-16T02:43:07.342Z,1004.97
2022-12-16T02:44:07.349Z,1005.00
2022-12-16T02:45:07.339Z,1005.06
2022-12-16T02:46:07.415Z,1005.00
2022-12-16T02:47:07.343Z,1005.03
2022-12-16T02:48:07.330Z,1005.04
2022-12-16T02:49:07.337Z,1005.00
2022-12-16T02:50:07.325Z,1004.99
2022-12-16T02:51:07.333Z,1005.00
2022-12-16T02:52:07.331Z,1005.02
2022-12-16T02:53:07.322Z,1005.04
2022-12-16T02:54:07.317Z,1005.00
2022-12-16T02:55:07.330Z,1004.99
2022-12-16T02:56:07.313Z,1005.00
2022-12-16T02:57:07.324Z,1004.97
2022-12-16T02:58:07.340Z,1004.98
2022-12-16T02:59:07.305Z,1004.97
2022-12-16T03:00:07.308Z,1005.02
2022-12-16T03:01:07.466Z,1005.00
2022-12-16T03:02:07.529Z,1005.02
2022-12-16T03:03:07.484Z,1005.01
2022-12-16T03:04:07.294Z,1004.99
2022-12-16T03:05:07.298Z,1005.02
2022-12-16T03:06:07.288Z,1005.02
2022-12-16T03:07:07.291Z,1005.04
2022-12-16T03:08:07.282Z,1005.00
2022-12-16T03:09:07.285Z,1005.02
2022-12-16T03:10:07.288Z,1005.07
2022-12-16T03:11:07.272Z,1005.02
2022-12-16T03:12:07.272Z,1005.03
2022-12-16T03:13:07.276Z,1005.01
2022-12-16T03:14:07.288Z,1005.00
2022-12-16T03:15:07.263Z,1005.01
2022-12-16T03:16:07.263Z,1005.00
2022-12-16T03:17:07.379Z,1005.00
2022-12-16T03:18:07.258Z,1004.97
2022-12-16T03:19:07.263Z,1004.98
2022-12-16T03:20:07.252Z,1004.99
2022-12-16T03:21:07.250Z,1005.00
2022-12-16T03:22:07.247Z,1005.01
2022-12-16T03:23:07.252Z,1005.04
2022-12-16T03:24:07.250Z,1005.02
2022-12-16T03:25:07.249Z,1005.03
2022-12-16T03:26:07.239Z,1005.05
2022-12-16T03:27:07.244Z,1005.04
2022-12-16T03:28:07.232Z,1005.02
2022-12-16T03:29:07.245Z,1005.00
2022-12-16T03:30:07.252Z,1005.03
2022-12-16T03:31:07.338Z,1005.00
2022-12-16T03:32:07.224Z,1004.98
2022-12-16T03:33:07.223Z,1005.00
2022-12-16T03:34:07.225Z,1005.01
2022-12-16T03:35:07.215Z,1005.03
2022-12-16T03:36:07.213Z,1005.02
2022-12-16T03:37:07.215Z,1005.01
2022-12-16T03:38:07.220Z,1005.02
2022-12-16T03:39:07.205Z,1005.01
2022-12-16T03:40:07.204Z,1004.99
2022-12-16T03:41:07.206Z,1004.99
2022-12-16T03:42:07.207Z,1005.03
2022-12-16T03:43:07.201Z,1005.03
2022-12-16T03:44:07.193Z,1005.03
2022-12-16T03:45:07.191Z,1005.05
2022-12-16T03:46:07.281Z,1004.99
2022-12-16T03:47:07.192Z,1005.00
2022-12-16T03:48:07.192Z,1005.01
2022-12-16T03:49:07.181Z,1004.98
2022-12-16T03:50:07.189Z,1005.02
2022-12-16T03:51:07.173Z,1004.99
2022-12-16T03:52:07.180Z,1005.05
2022-12-16T03:53:07.386Z,1005.03
2022-12-16T03:54:07.173Z,1005.08
2022-12-16T03:55:07.172Z,1005.06
2022-12-16T03:56:07.172Z,1005.10
2022-12-16T03:57:11.787Z,1005.10
2022-12-16T03:58:07.164Z,1005.12
2022-12-16T03:59:07.165Z,1005.10
2022-12-16T04:00:07.158Z,1005.07
2022-12-16T04:01:07.156Z,1005.10
2022-12-16T04:02:07.314Z,1005.06
2022-12-16T04:03:07.596Z,1005.05
2022-12-16T04:04:07.183Z,1005.08
2022-12-16T04:05:07.147Z,1005.07
2022-12-16T04:06:07.145Z,1005.12
2022-12-16T04:07:07.144Z,1005.10
2022-12-16T04:08:07.132Z,1005.13
2022-12-16T04:09:07.129Z,1005.13
2022-12-16T04:10:07.130Z,1005.11
2022-12-16T04:11:07.129Z,1005.09
2022-12-16T04:12:07.128Z,1005.13
2022-12-16T04:13:07.117Z,1005.10
2022-12-16T04:14:07.123Z,1005.15
2022-12-16T04:15:07.119Z,1005.16
2022-12-16T04:16:07.155Z,1005.15
2022-12-16T04:17:07.113Z,1005.17
2022-12-16T04:18:07.132Z,1005.15
2022-12-16T04:19:07.103Z,1005.18
2022-12-16T04:20:07.115Z,1005.15
2022-12-16T04:21:07.096Z,1005.14
2022-12-16T04:22:07.102Z,1005.13
2022-12-16T04:23:07.097Z,1005.18
2022-12-16T04:24:07.097Z,1005.19
2022-12-16T04:25:07.085Z,1005.19
2022-12-16T04:26:07.092Z,1005.23
2022-12-16T04:27:13.418Z,1005.22
2022-12-16T04:28:07.085Z,1005.22
2022-12-16T04:29:07.083Z,1005.29
2022-12-16T04:30:07.081Z,1005.29
2022-12-16T04:31:07.151Z,1005.26
2022-12-16T04:32:07.075Z,1005.29
2022-12-16T04:33:07.066Z,1005.28
2022-12-16T04:34:07.092Z,1005.32
2022-12-16T04:35:07.061Z,1005.32
2022-12-16T04:36:07.062Z,1005.31
2022-12-16T04:37:07.070Z,1005.35
2022-12-16T04:38:07.051Z,1005.35
2022-12-16T04:39:07.058Z,1005.33
2022-12-16T04:40:07.046Z,1005.35
2022-12-16T04:41:07.044Z,1005.37
2022-12-16T04:42:07.040Z,1005.37
2022-12-16T04:43:07.039Z,1005.39
2022-12-16T04:44:07.034Z,1005.36
2022-12-16T04:45:07.032Z,1005.35
2022-12-16T04:46:07.084Z,1005.37
2022-12-16T04:47:07.035Z,1005.35
2022-12-16T04:48:07.033Z,1005.37
2022-12-16T04:49:07.023Z,1005.33
2022-12-16T04:50:07.051Z,1005.32
2022-12-16T04:51:07.022Z,1005.35
2022-12-16T04:52:07.022Z,1005.35
2022-12-16T04:53:07.010Z,1005.39
2022-12-16T04:54:07.010Z,1005.39
2022-12-16T04:55:07.013Z,1005.37
2022-12-16T04:56:07.005Z,1005.41
2022-12-16T04:57:07.008Z,1005.41
2022-12-16T04:58:06.999Z,1005.40
2022-12-16T04:59:07.001Z,1005.42
2022-12-16T05:00:07.000Z,1005.46
2022-12-16T05:01:06.989Z,1005.48
2022-12-16T05:02:07.139Z,1005.49
2022-12-16T05:03:07.027Z,1005.50
2022-12-16T05:04:06.992Z,1005.52
2022-12-16T05:05:06.980Z,1005.52
2022-12-16T05:06:07.010Z,1005.52
2022-12-16T05:07:06.973Z,1005.50
2022-12-16T05:08:06.976Z,1005.48
2022-12-16T05:09:06.977Z,1005.44
2022-12-16T05:10:06.970Z,1005.45
2022-12-16T05:11:06.962Z,1005.47
2022-12-16T05:12:06.973Z,1005.44
2022-12-16T05:13:06.956Z,1005.49
2022-12-16T05:14:06.952Z,1005.51
2022-12-16T05:15:06.958Z,1005.48
2022-12-16T05:16:07.003Z,1005.51
2022-12-16T05:17:06.956Z,1005.55
2022-12-16T05:18:06.940Z,1005.56
2022-12-16T05:19:06.946Z,1005.58
2022-12-16T05:20:06.944Z,1005.60
2022-12-16T05:21:06.934Z,1005.61
2022-12-16T05:22:06.959Z,1005.60
2022-12-16T05:23:06.934Z,1005.60
2022-12-16T05:24:06.934Z,1005.61
2022-12-16T05:25:06.921Z,1005.60
2022-12-16T05:26:06.929Z,1005.61
2022-12-16T05:27:06.915Z,1005.62
2022-12-16T05:28:06.921Z,1005.64
2022-12-16T05:29:06.909Z,1005.66
2022-12-16T05:30:06.937Z,1005.69
2022-12-16T05:31:06.950Z,1005.72
2022-12-16T05:32:06.901Z,1005.74
2022-12-16T05:33:06.909Z,1005.73
2022-12-16T05:34:06.904Z,1005.80
2022-12-16T05:35:06.901Z,1005.80
2022-12-16T05:36:06.896Z,1005.77
2022-12-16T05:37:06.895Z,1005.77
2022-12-16T05:38:06.909Z,1005.79
2022-12-16T05:39:06.883Z,1005.80
2022-12-16T05:40:06.879Z,1005.86
2022-12-16T05:41:06.883Z,1005.85
2022-12-16T05:42:06.873Z,1005.92
2022-12-16T05:43:08.897Z,1005.88
2022-12-16T05:44:06.869Z,1005.89
2022-12-16T05:45:06.871Z,1005.89
2022-12-16T05:46:06.976Z,1005.94
2022-12-16T05:47:06.932Z,1005.94
2022-12-16T05:48:06.864Z,1005.93
2022-12-16T05:49:06.860Z,1005.96
2022-12-16T05:50:06.854Z,1005.96
2022-12-16T05:51:06.845Z,1006.00
2022-12-16T05:52:06.847Z,1005.99
2022-12-16T05:53:06.893Z,1006.03
2022-12-16T05:54:06.874Z,1006.03
2022-12-16T05:55:06.844Z,1006.03
2022-12-16T05:56:06.841Z,1006.05
2022-12-16T05:57:06.830Z,1006.08
2022-12-16T05:58:06.828Z,1006.08
2022-12-16T05:59:06.826Z,1006.10
2022-12-16T06:00:06.828Z,1006.10
2022-12-16T06:01:06.827Z,1006.12
2022-12-16T06:02:06.969Z,1006.15
2022-12-16T06:03:07.102Z,1006.16
2022-12-16T06:04:06.903Z,1006.19
2022-12-16T06:05:06.816Z,1006.15
2022-12-16T06:06:06.805Z,1006.18
2022-12-16T06:07:06.809Z,1006.14
2022-12-16T06:08:06.800Z,1006.24
2022-12-16T06:09:06.796Z,1006.21
2022-12-16T06:10:06.825Z,1006.18
2022-12-16T06:11:06.798Z,1006.20
2022-12-16T06:12:06.787Z,1006.22
2022-12-16T06:13:06.787Z,1006.17
2022-12-16T06:14:06.790Z,1006.19
2022-12-16T06:15:06.786Z,1006.24
2022-12-16T06:16:08.821Z,1006.25
2022-12-16T06:17:06.782Z,1006.26
2022-12-16T06:18:06.782Z,1006.30
2022-12-16T06:19:06.769Z,1006.27
2022-12-16T06:20:06.771Z,1006.28
2022-12-16T06:21:06.769Z,1006.30
2022-12-16T06:22:06.758Z,1006.24
2022-12-16T06:23:06.763Z,1006.25
2022-12-16T06:24:06.751Z,1006.28
2022-12-16T06:25:06.760Z,1006.32
2022-12-16T06:26:06.780Z,1006.30
2022-12-16T06:27:06.745Z,1006.33
2022-12-16T06:28:06.751Z,1006.36
2022-12-16T06:29:06.740Z,1006.36
2022-12-16T06:30:06.742Z,1006.43
2022-12-16T06:31:06.816Z,1006.43
2022-12-16T06:32:06.729Z,1006.43
2022-12-16T06:33:06.726Z,1006.47
2022-12-16T06:34:06.725Z,1006.48
2022-12-16T06:35:06.729Z,1006.51
2022-12-16T06:36:06.727Z,1006.53
2022-12-16T06:37:06.716Z,1006.56
2022-12-16T06:38:06.717Z,1006.58
2022-12-16T06:39:06.709Z,1006.61
2022-12-16T06:40:06.713Z,1006.58
2022-12-16T06:41:06.713Z,1006.64
2022-12-16T06:42:06.724Z,1006.68
2022-12-16T06:43:06.705Z,1006.68
2022-12-16T06:44:06.701Z,1006.68
2022-12-16T06:45:06.701Z,1006.72
2022-12-16T06:46:06.714Z,1006.76
2022-12-16T06:47:06.692Z,1006.76
2022-12-16T06:48:06.685Z,1006.80
2022-12-16T06:49:06.688Z,1006.81
2022-12-16T06:50:06.687Z,1006.81
2022-12-16T06:51:06.675Z,1006.83
2022-12-16T06:52:06.680Z,1006.86
2022-12-16T06:53:06.676Z,1006.89
2022-12-16T06:54:06.669Z,1006.81
2022-12-16T06:55:06.662Z,1006.88
2022-12-16T06:56:06.671Z,1006.91
2022-12-16T06:57:06.660Z,1006.90
2022-12-16T06:58:09.894Z,1006.95
2022-12-16T06:59:06.662Z,1006.95
2022-12-16T07:00:06.654Z,1006.97
2022-12-16T07:01:06.699Z,1006.97
2022-12-16T07:02:06.787Z,1006.95
2022-12-16T07:03:06.673Z,1006.97
2022-12-16T07:04:06.641Z,1006.98
2022-12-16T07:05:06.778Z,1006.98
2022-12-16T07:06:07.718Z,1006.98
2022-12-16T07:07:06.644Z,1007.02
2022-12-16T07:08:06.630Z,1007.05
2022-12-16T07:09:06.636Z,1007.06
2022-12-16T07:10:06.633Z,1007.08
2022-12-16T07:11:16.017Z,1007.09
2022-12-16T07:12:06.621Z,1007.04
2022-12-16T07:13:06.626Z,1007.06
2022-12-16T07:14:06.642Z,1007.08
2022-12-16T07:15:06.620Z,1007.09
2022-12-16T07:16:06.706Z,1007.13
2022-12-16T07:17:06.616Z,1007.13
2022-12-16T07:18:06.605Z,1007.16
2022-12-16T07:19:06.611Z,1007.13
2022-12-16T07:20:06.601Z,1007.18
2022-12-16T07:21:06.608Z,1007.14
2022-12-16T07:22:06.598Z,1007.16
2022-12-16T07:23:13.131Z,1007.19
2022-12-16T07:24:06.598Z,1007.24
2022-12-16T07:25:06.600Z,1007.25
2022-12-16T07:26:06.594Z,1007.30
2022-12-16T07:27:06.586Z,1007.29
2022-12-16T07:28:12.184Z,1007.32
2022-12-16T07:29:06.591Z,1007.38
2022-12-16T07:30:06.690Z,1007.35
2022-12-16T07:31:06.579Z,1007.37
2022-12-16T07:32:06.648Z,1007.42
2022-12-16T07:33:06.574Z,1007.45
2022-12-16T07:34:06.576Z,1007.51
2022-12-16T07:35:06.567Z,1007.48
2022-12-16T07:36:06.571Z,1007.53
2022-12-16T07:37:06.571Z,1007.52
2022-12-16T07:38:06.568Z,1007.57
2022-12-16T07:39:06.566Z,1007.58
2022-12-16T07:40:06.555Z,1007.56
2022-12-16T07:41:06.550Z,1007.64
2022-12-16T07:42:06.551Z,1007.69
2022-12-16T07:43:06.548Z,1007.67
2022-12-16T07:44:06.547Z,1007.69
2022-12-16T07:45:06.551Z,1007.70
2022-12-16T07:46:06.643Z,1007.71
2022-12-16T07:47:06.543Z,1007.70
2022-12-16T07:48:06.553Z,1007.70
2022-12-16T07:49:06.542Z,1007.71
2022-12-16T07:50:06.534Z,1007.72
2022-12-16T07:51:06.528Z,1007.73
2022-12-16T07:52:06.531Z,1007.78
2022-12-16T07:53:06.524Z,1007.79
2022-12-16T07:54:06.530Z,1007.82
2022-12-16T07:55:06.520Z,1007.82
2022-12-16T07:56:06.518Z,1007.85
2022-12-16T07:57:06.524Z,1007.86
2022-12-16T07:58:06.514Z,1007.81
2022-12-16T07:59:06.676Z,1007.85
2022-12-16T08:00:06.515Z,1007.84
2022-12-16T08:01:09.673Z,1007.86
2022-12-16T08:02:06.813Z,1007.84
2022-12-16T08:03:06.665Z,1007.85
2022-12-16T08:04:06.505Z,1007.95
2022-12-16T08:05:06.499Z,1007.94
2022-12-16T08:06:06.498Z,1007.94
2022-12-16T08:07:06.499Z,1007.95
2022-12-16T08:08:06.505Z,1007.97
2022-12-16T08:09:06.602Z,1008.00
2022-12-16T08:10:06.488Z,1008.01
2022-12-16T08:11:06.494Z,1008.02
2022-12-16T08:12:06.491Z,1008.05
2022-12-16T08:13:06.488Z,1008.02
2022-12-16T08:14:06.514Z,1008.04
2022-12-16T08:15:06.495Z,1008.08
2022-12-16T08:16:06.483Z,1008.12
2022-12-16T08:17:06.579Z,1008.09
2022-12-16T08:18:06.517Z,1008.12
2022-12-16T08:19:10.972Z,1008.13
2022-12-16T08:20:06.470Z,1008.13
2022-12-16T08:21:06.467Z,1008.17
2022-12-16T08:22:06.469Z,1008.20
2022-12-16T08:23:06.476Z,1008.18
2022-12-16T08:24:06.472Z,1008.16
2022-12-16T08:25:06.467Z,1008.13
2022-12-16T08:26:06.465Z,1008.15
2022-12-16T08:27:06.456Z,1008.20
2022-12-16T08:28:06.457Z,1008.21
2022-12-16T08:29:27.292Z,1008.23
2022-12-16T08:30:06.453Z,1008.25
2022-12-16T08:31:06.502Z,1008.29
2022-12-16T08:32:06.456Z,1008.29
2022-12-16T08:33:16.603Z,1008.37
2022-12-16T08:34:06.475Z,1008.34
2022-12-16T08:35:06.446Z,1008.36
2022-12-16T08:36:06.454Z,1008.29
2022-12-16T08:37:06.449Z,1008.34
2022-12-16T08:38:10.546Z,1008.33
2022-12-16T08:39:06.442Z,1008.36
2022-12-16T08:40:34.421Z,1008.40
2022-12-16T08:41:06.444Z,1008.39
2022-12-16T08:42:06.433Z,1008.41
2022-12-16T08:43:11.015Z,1008.39
2022-12-16T08:44:06.430Z,1008.40
2022-12-16T08:45:06.438Z,1008.42
2022-12-16T08:46:06.583Z,1008.40
2022-12-16T08:47:06.425Z,1008.42
2022-12-16T08:48:06.425Z,1008.45
2022-12-16T08:49:06.421Z,1008.42
2022-12-16T08:50:06.443Z,1008.39
2022-12-16T08:51:06.429Z,1008.40
2022-12-16T08:52:06.423Z,1008.42
2022-12-16T08:53:06.417Z,1008.46
2022-12-16T08:54:06.417Z,1008.45
2022-12-16T08:55:06.421Z,1008.48
2022-12-16T08:56:06.421Z,1008.48
2022-12-16T08:57:06.421Z,1008.49
2022-12-16T08:58:06.413Z,1008.51
2022-12-16T08:59:06.409Z,1008.50
2022-12-16T09:00:06.412Z,1008.52
2022-12-16T09:01:07.687Z,1008.46
2022-12-16T09:02:06.544Z,1008.47
2022-12-16T09:03:06.716Z,1008.47
2022-12-16T09:04:06.462Z,1008.51
2022-12-16T09:05:06.412Z,1008.47
2022-12-16T09:06:06.429Z,1008.51
2022-12-16T09:07:06.410Z,1008.53
2022-12-16T09:08:06.400Z,1008.55
2022-12-16T09:09:06.402Z,1008.56
2022-12-16T09:10:06.400Z,1008.54
2022-12-16T09:11:06.396Z,1008.57
2022-12-16T09:12:06.401Z,1008.64
2022-12-16T09:13:06.395Z,1008.62
2022-12-16T09:14:06.396Z,1008.60
2022-12-16T09:15:06.393Z,1008.59
2022-12-16T09:16:06.465Z,1008.60
2022-12-16T09:17:06.398Z,1008.62
2022-12-16T09:18:06.399Z,1008.60
2022-12-16T09:19:06.405Z,1008.56
2022-12-16T09:20:06.390Z,1008.60
2022-12-16T09:21:06.390Z,1008.57
2022-12-16T09:22:06.418Z,1008.59
2022-12-16T09:23:06.393Z,1008.61
2022-12-16T09:24:06.384Z,1008.64
2022-12-16T09:25:06.394Z,1008.65
2022-12-16T09:26:06.446Z,1008.62
2022-12-16T09:27:06.384Z,1008.63
2022-12-16T09:28:06.390Z,1008.64
2022-12-16T09:29:06.382Z,1008.66
2022-12-16T09:30:06.387Z,1008.65
2022-12-16T09:31:06.431Z,1008.64
2022-12-16T09:32:06.386Z,1008.62
2022-12-16T09:33:06.387Z,1008.67
2022-12-16T09:34:06.385Z,1008.68
2022-12-16T09:35:13.162Z,1008.70
2022-12-16T09:36:06.376Z,1008.70
2022-12-16T09:37:06.378Z,1008.71
2022-12-16T09:38:06.404Z,1008.74
2022-12-16T09:39:06.378Z,1008.72
2022-12-16T09:40:06.374Z,1008.73
2022-12-16T09:41:06.371Z,1008.76
2022-12-16T09:42:06.379Z,1008.81
2022-12-16T09:43:06.371Z,1008.77
2022-12-16T09:44:06.371Z,1008.80
2022-12-16T09:45:06.381Z,1008.83
2022-12-16T09:46:06.403Z,1008.85
2022-12-16T09:47:08.523Z,1008.82
2022-12-16T09:48:06.369Z,1008.78
2022-12-16T09:49:06.368Z,1008.79
2022-12-16T09:50:06.369Z,1008.80
2022-12-16T09:51:06.368Z,1008.78
2022-12-16T09:52:06.376Z,1008.82
2022-12-16T09:53:06.366Z,1008.82
2022-12-16T09:54:06.411Z,1008.83
2022-12-16T09:55:06.385Z,1008.85
2022-12-16T09:56:06.366Z,1008.83
2022-12-16T09:57:06.375Z,1008.88
2022-12-16T09:58:06.369Z,1008.83
2022-12-16T09:59:06.376Z,1008.82
2022-12-16T10:00:06.367Z,1008.83
2022-12-16T10:01:06.429Z,1008.87
2022-12-16T10:02:06.502Z,1008.87
2022-12-16T10:03:07.105Z,1008.82
2022-12-16T10:04:06.450Z,1008.84
2022-12-16T10:05:06.377Z,1008.83
2022-12-16T10:06:06.367Z,1008.87
2022-12-16T10:07:06.368Z,1008.86
2022-12-16T10:08:06.369Z,1008.80
2022-12-16T10:09:06.376Z,1008.87
2022-12-16T10:10:06.410Z,1008.87
2022-12-16T10:11:06.378Z,1008.86
2022-12-16T10:12:06.375Z,1008.85
2022-12-16T10:13:06.369Z,1008.86
2022-12-16T10:14:06.380Z,1008.85
2022-12-16T10:15:06.371Z,1008.89
2022-12-16T10:16:06.420Z,1008.85
2022-12-16T10:17:06.380Z,1008.86
2022-12-16T10:18:06.433Z,1008.84
2022-12-16T10:19:06.372Z,1008.84
2022-12-16T10:20:09.518Z,1008.84
2022-12-16T10:21:06.385Z,1008.88
2022-12-16T10:22:06.383Z,1008.86
2022-12-16T10:23:06.383Z,1008.90
2022-12-16T10:24:06.386Z,1008.93
2022-12-16T10:25:06.378Z,1008.93
2022-12-16T10:26:06.403Z,1008.92
2022-12-16T10:27:06.383Z,1008.94
2022-12-16T10:28:06.389Z,1008.93
2022-12-16T10:29:06.381Z,1008.93
2022-12-16T10:30:06.385Z,1008.92
2022-12-16T10:31:06.470Z,1008.91
2022-12-16T10:32:06.378Z,1008.86
2022-12-16T10:33:06.387Z,1008.89
2022-12-16T10:34:06.381Z,1008.84
2022-12-16T10:35:06.389Z,1008.84
2022-12-16T10:36:06.389Z,1008.89
2022-12-16T10:37:11.651Z,1008.89
2022-12-16T10:38:06.389Z,1008.85
2022-12-16T10:39:06.392Z,1008.91
2022-12-16T10:40:06.398Z,1008.90
2022-12-16T10:41:06.392Z,1008.92
2022-12-16T10:42:06.434Z,1008.91
2022-12-16T10:43:06.388Z,1008.92
2022-12-16T10:44:06.392Z,1008.87
2022-12-16T10:45:06.394Z,1008.88
2022-12-16T10:46:06.446Z,1008.88
2022-12-16T10:47:06.388Z,1008.91
2022-12-16T10:48:06.389Z,1008.88
2022-12-16T10:49:06.441Z,1008.91
2022-12-16T10:50:06.515Z,1008.92
2022-12-16T10:51:06.397Z,1008.94
2022-12-16T10:52:09.236Z,1008.90
2022-12-16T10:53:06.393Z,1008.90
2022-12-16T10:54:06.398Z,1008.91
2022-12-16T10:55:06.399Z,1008.94
2022-12-16T10:56:06.392Z,1008.89
2022-12-16T10:57:06.402Z,1008.91
2022-12-16T10:58:06.427Z,1008.87
2022-12-16T10:59:06.400Z,1008.87
2022-12-16T11:00:06.403Z,1008.86
2022-12-16T11:01:06.395Z,1008.85
2022-12-16T11:02:06.538Z,1008.90
2022-12-16T11:03:06.648Z,1008.90
2022-12-16T11:04:06.428Z,1008.94
2022-12-16T11:05:06.407Z,1008.93
2022-12-16T11:06:06.398Z,1008.94
2022-12-16T11:07:06.407Z,1008.95
2022-12-16T11:08:06.406Z,1008.93
2022-12-16T11:09:06.407Z,1008.91
2022-12-16T11:10:06.408Z,1008.91
2022-12-16T11:11:06.409Z,1008.91
2022-12-16T11:12:06.409Z,1008.90
2022-12-16T11:13:06.412Z,1008.92
2022-12-16T11:14:06.499Z,1008.93
2022-12-16T11:15:28.255Z,1008.93
2022-12-16T11:16:06.425Z,1008.93
2022-12-16T11:17:06.407Z,1008.93
2022-12-16T11:18:06.415Z,1008.90
2022-12-16T11:19:06.415Z,1008.90
2022-12-16T11:20:06.407Z,1008.93
2022-12-16T11:21:09.125Z,1008.92
2022-12-16T11:22:06.415Z,1008.93
2022-12-16T11:23:06.408Z,1008.92
2022-12-16T11:24:06.420Z,1008.93
2022-12-16T11:25:06.425Z,1008.89
2022-12-16T11:26:06.416Z,1008.91
2022-12-16T11:27:06.413Z,1008.94
2022-12-16T11:28:06.416Z,1008.95
2022-12-16T11:29:06.420Z,1008.95
2022-12-16T11:30:06.445Z,1008.98
2022-12-16T11:31:06.489Z,1008.96
2022-12-16T11:32:06.426Z,1008.99
2022-12-16T11:33:06.423Z,1008.99
2022-12-16T11:34:06.427Z,1008.97
2022-12-16T11:35:06.424Z,1008.94
2022-12-16T11:36:06.422Z,1008.97
2022-12-16T11:37:09.322Z,1008.96
2022-12-16T11:38:06.422Z,1008.98
2022-12-16T11:39:06.427Z,1009.00
2022-12-16T11:40:06.421Z,1009.02
2022-12-16T11:41:06.424Z,1009.04
2022-12-16T11:42:06.429Z,1009.03
2022-12-16T11:43:11.668Z,1009.05
2022-12-16T11:44:06.424Z,1009.10
2022-12-16T11:45:06.430Z,1009.07
2022-12-16T11:46:06.539Z,1009.10
2022-12-16T11:47:06.423Z,1009.16
2022-12-16T11:48:06.430Z,1009.15
2022-12-16T11:49:06.428Z,1009.16
2022-12-16T11:50:06.437Z,1009.15
2022-12-16T11:51:06.432Z,1009.13
2022-12-16T11:52:34.886Z,1009.14
2022-12-16T11:53:06.430Z,1009.15
2022-12-16T11:54:06.427Z,1009.15
2022-12-16T11:55:06.467Z,1009.17
2022-12-16T11:56:12.400Z,1009.15
2022-12-16T11:57:06.428Z,1009.16
2022-12-16T11:58:06.437Z,1009.08
2022-12-16T11:59:06.436Z,1009.10
2022-12-16T12:00:06.437Z,1009.10
2022-12-16T12:01:06.430Z,1009.11
2022-12-16T12:02:06.546Z,1009.16
2022-12-16T12:03:06.543Z,1009.13
2022-12-16T12:04:06.517Z,1009.11
2022-12-16T12:05:06.439Z,1009.15